createdAt,value
2023-05-10T00:00:54.203Z,12.11
2023-05-10T00:03:22.223Z,11.98
2023-05-10T00:05:50.024Z,12.03
2023-05-10T00:08:17.654Z,11.85
2023-05-10T00:10:45.694Z,11.98
2023-05-10T00:13:13.562Z,11.99
2023-05-10T00:15:41.252Z,11.76
2023-05-10T00:18:09.384Z,12.17
2023-05-10T00:20:37.148Z,12.10
2023-05-10T00:23:04.750Z,12.33
2023-05-10T00:25:32.767Z,12.12
2023-05-10T00:28:00.414Z,12.15
2023-05-10T00:30:28.184Z,12.13
2023-05-10T00:32:56.234Z,12.13
2023-05-10T00:35:24.011Z,12.07
2023-05-10T00:37:51.612Z,12.16
2023-05-10T00:40:19.581Z,12.20
2023-05-10T00:42:48.436Z,12.28
2023-05-10T00:45:16.060Z,12.18
2023-05-10T00:47:44.060Z,12.20
2023-05-10T00:50:11.760Z,12.36
2023-05-10T00:52:39.464Z,12.28
2023-05-10T00:55:07.989Z,12.21
2023-05-10T00:57:35.949Z,12.35
2023-05-10T01:00:04.077Z,12.14
2023-05-10T01:02:32.154Z,12.15
2023-05-10T01:05:00.239Z,12.31
2023-05-10T01:07:28.009Z,12.46
2023-05-10T01:09:56.585Z,12.18
2023-05-10T01:12:24.643Z,12.38
2023-05-10T01:14:52.519Z,12.24
2023-05-10T01:17:22.009Z,12.33
2023-05-10T01:19:50.197Z,12.48
2023-05-10T01:23:02.808Z,12.62
2023-05-10T01:25:55.838Z,12.71
2023-05-10T01:29:01.145Z,12.80
2023-05-10T01:31:59.129Z,12.64
2023-05-10T01:34:30.345Z,12.67
2023-05-10T01:37:09.029Z,12.49
2023-05-10T01:39:48.374Z,12.59
2023-05-10T01:42:22.653Z,12.43
2023-05-10T01:44:56.360Z,12.20
2023-05-10T01:47:43.672Z,12.20
2023-05-10T01:50:18.160Z,12.50
2023-05-10T01:52:51.454Z,12.01
2023-05-10T01:55:21.679Z,11.92
2023-05-10T01:57:55.620Z,12.07
2023-05-10T02:00:24.495Z,12.14
2023-05-10T02:02:53.076Z,12.04
2023-05-10T02:05:21.503Z,12.28
2023-05-10T02:07:50.393Z,12.40
2023-05-10T02:10:19.185Z,12.58
2023-05-10T02:12:49.212Z,12.47
2023-05-10T02:15:20.865Z,12.51
2023-05-10T02:17:48.794Z,12.34
2023-05-10T02:20:17.934Z,12.31
2023-05-10T02:22:48.531Z,12.44
2023-05-10T02:25:16.816Z,12.37
2023-05-10T02:27:45.623Z,12.14
2023-05-10T02:30:14.178Z,12.44
2023-05-10T02:32:42.630Z,12.36
2023-05-10T02:35:10.867Z,12.25
2023-05-10T02:37:39.513Z,12.31
2023-05-10T02:40:08.547Z,12.27
2023-05-10T02:42:38.073Z,12.19
2023-05-10T02:45:11.463Z,12.28
2023-05-10T02:47:39.724Z,12.08
2023-05-10T02:50:07.742Z,12.23
2023-05-10T02:52:40.904Z,12.12
2023-05-10T02:55:10.835Z,12.18
2023-05-10T02:57:42.411Z,12.11
2023-05-10T03:00:10.842Z,11.79
2023-05-10T03:02:38.539Z,11.99
2023-05-10T03:05:06.583Z,11.91
2023-05-10T03:07:35.256Z,12.24
2023-05-10T03:10:03.640Z,12.05
2023-05-10T03:13:02.494Z,12.15
2023-05-10T03:15:47.170Z,11.93
2023-05-10T03:18:41.609Z,12.07
2023-05-10T03:21:12.412Z,12.20
2023-05-10T03:23:44.884Z,12.04
2023-05-10T03:26:39.545Z,12.01
2023-05-10T03:29:09.861Z,11.80
2023-05-10T03:31:39.524Z,12.13
2023-05-10T03:34:07.391Z,11.90
2023-05-10T03:36:56.475Z,12.05
2023-05-10T03:39:25.824Z,12.12
2023-05-10T03:42:07.140Z,12.05
2023-05-10T03:44:55.539Z,11.83
2023-05-10T03:47:29.760Z,11.89
2023-05-10T03:49:59.386Z,11.94
2023-05-10T03:52:39.027Z,11.87
2023-05-10T03:55:07.683Z,11.93
2023-05-10T03:57:35.722Z,11.88
2023-05-10T04:00:05.015Z,11.99
2023-05-10T04:02:42.957Z,11.93
2023-05-10T04:08:06.760Z,12.05
2023-05-10T04:10:52.390Z,12.17
2023-05-10T04:13:20.158Z,12.16
2023-05-10T04:15:48.255Z,11.95
2023-05-10T04:18:15.856Z,12.02
2023-05-10T04:20:43.464Z,11.88
2023-05-10T04:23:11.431Z,11.85
2023-05-10T04:25:39.033Z,11.77
2023-05-10T04:28:06.981Z,12.10
2023-05-10T04:30:35.170Z,11.85
2023-05-10T04:33:02.960Z,12.12
2023-05-10T04:35:30.696Z,12.05
2023-05-10T04:37:58.598Z,12.11
2023-05-10T04:40:26.833Z,11.98
2023-05-10T04:42:54.553Z,11.97
2023-05-10T04:45:22.517Z,11.98
2023-05-10T04:47:50.228Z,11.99
2023-05-10T04:50:18.266Z,12.16
2023-05-10T04:52:46.584Z,12.10
2023-05-10T04:55:14.237Z,12.18
2023-05-10T04:57:41.897Z,12.17
2023-05-10T05:00:10.369Z,12.25
2023-05-10T05:02:38.219Z,11.91
2023-05-10T05:05:06.443Z,12.12
2023-05-10T05:07:34.338Z,11.91
2023-05-10T05:10:02.052Z,12.12
2023-05-10T05:12:29.990Z,12.03
2023-05-10T05:14:57.961Z,11.97
2023-05-10T05:17:25.887Z,11.88
2023-05-10T05:19:53.741Z,12.10
2023-05-10T05:22:21.676Z,12.16
2023-05-10T05:24:49.254Z,12.19
2023-05-10T05:27:17.129Z,12.27
2023-05-10T05:29:45.153Z,12.31
2023-05-10T05:32:12.903Z,12.34
2023-05-10T05:34:40.636Z,12.36
2023-05-10T05:37:08.553Z,12.53
2023-05-10T05:39:37.014Z,12.55
2023-05-10T05:42:04.763Z,12.47
2023-05-10T05:44:32.693Z,12.69
2023-05-10T05:47:00.275Z,12.68
2023-05-10T05:49:28.106Z,12.65
2023-05-10T05:51:59.836Z,12.70
2023-05-10T05:54:28.236Z,12.74
2023-05-10T05:57:01.061Z,12.56
2023-05-10T05:59:29.238Z,12.73
2023-05-10T06:01:57.274Z,12.84
2023-05-10T06:04:25.396Z,12.90
2023-05-10T06:06:53.435Z,12.91
2023-05-10T06:09:21.130Z,13.13
2023-05-10T06:11:49.036Z,13.06
2023-05-10T06:14:16.777Z,13.16
2023-05-10T06:16:44.456Z,12.94
2023-05-10T06:19:12.434Z,13.17
2023-05-10T06:21:40.173Z,13.21
2023-05-10T06:24:08.011Z,13.34
2023-05-10T06:26:35.976Z,13.31
2023-05-10T06:29:03.946Z,13.46
2023-05-10T06:31:31.684Z,13.66
2023-05-10T06:33:59.712Z,13.67
2023-05-10T06:36:27.430Z,13.50
2023-05-10T06:38:55.073Z,13.38
2023-05-10T06:41:24.700Z,13.63
2023-05-10T06:43:52.711Z,13.67
2023-05-10T06:46:20.423Z,13.96
2023-05-10T06:48:48.573Z,14.30
2023-05-10T06:51:16.139Z,14.02
2023-05-10T06:54:03.688Z,13.26
2023-05-10T06:56:31.731Z,13.88
2023-05-10T06:58:59.366Z,14.05
2023-05-10T07:01:26.979Z,14.04
2023-05-10T07:03:54.929Z,13.86
2023-05-10T07:06:32.819Z,14.40
2023-05-10T07:09:01.652Z,14.51
2023-05-10T07:11:29.372Z,14.86
2023-05-10T07:13:57.050Z,14.25
2023-05-10T07:16:24.986Z,14.51
2023-05-10T07:18:52.690Z,15.11
2023-05-10T07:21:20.556Z,15.08
2023-05-10T07:23:48.670Z,14.98
2023-05-10T07:26:16.643Z,14.95
2023-05-10T07:28:44.244Z,15.31
2023-05-10T07:31:12.758Z,15.37
2023-05-10T07:33:41.010Z,15.50
2023-05-10T07:36:08.585Z,15.47
2023-05-10T07:38:38.385Z,15.72
2023-05-10T07:41:07.293Z,15.65
2023-05-10T07:43:34.966Z,15.47
2023-05-10T07:46:02.933Z,15.60
2023-05-10T07:48:30.597Z,15.79
2023-05-10T07:50:58.234Z,15.84
2023-05-10T07:53:27.344Z,16.12
2023-05-10T07:55:57.643Z,16.22
2023-05-10T07:58:25.962Z,16.67
2023-05-10T08:00:53.938Z,16.26
2023-05-10T08:03:21.911Z,16.03
2023-05-10T08:05:49.471Z,15.77
2023-05-10T08:08:17.330Z,16.23
2023-05-10T08:10:45.425Z,16.35
2023-05-10T08:13:13.131Z,15.31
2023-05-10T08:15:40.767Z,15.26
2023-05-10T08:18:08.679Z,16.14
2023-05-10T08:20:36.408Z,15.93
2023-05-10T08:23:03.956Z,15.47
2023-05-10T08:25:32.520Z,15.34
2023-05-10T08:28:00.145Z,15.89
2023-05-10T08:30:27.801Z,16.31
2023-05-10T08:32:55.785Z,15.34
2023-05-10T08:35:23.428Z,15.63
2023-05-10T08:37:51.949Z,16.33
2023-05-10T08:40:20.830Z,16.14
2023-05-10T08:42:56.869Z,16.50
2023-05-10T08:45:25.689Z,16.85
2023-05-10T08:47:53.625Z,16.80
2023-05-10T08:50:21.518Z,16.22
2023-05-10T08:52:51.633Z,17.17
2023-05-10T08:55:19.516Z,17.91
2023-05-10T08:57:47.859Z,17.92
2023-05-10T09:00:16.409Z,18.36
2023-05-10T09:02:44.184Z,18.19
2023-05-10T09:05:11.913Z,18.64
2023-05-10T09:07:39.956Z,17.98
2023-05-10T09:10:08.279Z,17.06
2023-05-10T09:12:36.444Z,16.88
2023-05-10T09:15:05.283Z,16.96
2023-05-10T09:17:32.917Z,17.07
2023-05-10T09:20:01.593Z,17.00
2023-05-10T09:22:29.797Z,17.53
2023-05-10T09:25:14.974Z,17.14
2023-05-10T09:27:46.269Z,17.92
2023-05-10T09:30:18.594Z,17.86
2023-05-10T09:32:48.924Z,19.63
2023-05-10T09:35:18.803Z,18.44
2023-05-10T09:37:49.330Z,17.79
2023-05-10T09:40:18.868Z,17.37
2023-05-10T09:43:01.462Z,17.56
2023-05-10T09:45:31.610Z,17.01
2023-05-10T09:48:00.354Z,17.17
2023-05-10T09:50:28.370Z,17.83
2023-05-10T09:53:00.417Z,18.85
2023-05-10T09:55:40.503Z,18.12
2023-05-10T09:58:08.608Z,19.50
2023-05-10T10:00:38.001Z,19.88
2023-05-10T10:03:06.294Z,19.86
2023-05-10T10:05:35.830Z,19.09
2023-05-10T10:08:05.568Z,18.41
2023-05-10T10:10:34.134Z,18.79
2023-05-10T10:13:02.623Z,19.73
2023-05-10T10:15:30.288Z,19.78
2023-05-10T10:17:58.264Z,19.69
2023-05-10T10:20:27.858Z,20.22
2023-05-10T10:22:55.806Z,20.72
2023-05-10T10:25:23.808Z,20.87
2023-05-10T10:27:54.207Z,20.39
2023-05-10T10:30:44.916Z,19.02
2023-05-10T10:33:49.778Z,19.19
2023-05-10T10:36:17.430Z,19.32
2023-05-10T10:38:48.390Z,19.62
2023-05-10T10:41:32.980Z,20.52
2023-05-10T10:44:22.964Z,20.82
2023-05-10T10:47:12.934Z,21.18
2023-05-10T10:49:41.061Z,21.30
2023-05-10T10:52:35.914Z,21.03
2023-05-10T10:55:12.737Z,20.48
2023-05-10T10:57:50.208Z,20.13
2023-05-10T11:00:25.885Z,20.32
2023-05-10T11:03:13.482Z,20.82
2023-05-10T11:05:48.727Z,21.09
2023-05-10T11:08:21.360Z,21.99
2023-05-10T11:11:01.641Z,22.34
2023-05-10T11:13:38.594Z,22.31
2023-05-10T11:16:25.808Z,22.41
2023-05-10T11:18:54.523Z,22.66
2023-05-10T11:21:22.842Z,22.92
2023-05-10T11:23:52.099Z,22.47
2023-05-10T11:26:19.897Z,22.48
2023-05-10T11:28:48.968Z,22.37
2023-05-10T11:31:17.805Z,22.43
2023-05-10T11:33:50.094Z,22.43
2023-05-10T11:36:22.909Z,22.69
2023-05-10T11:38:50.723Z,21.97
2023-05-10T11:41:19.950Z,22.11
2023-05-10T11:43:49.805Z,22.12
2023-05-10T11:46:20.051Z,21.35
2023-05-10T11:48:50.513Z,21.39
2023-05-10T11:51:25.332Z,22.24
2023-05-10T11:53:57.522Z,23.62
2023-05-10T11:56:25.238Z,23.07
2023-05-10T11:58:55.151Z,21.43
2023-05-10T12:01:23.587Z,21.47
2023-05-10T12:03:53.056Z,21.36
2023-05-10T12:06:21.392Z,21.24
2023-05-10T12:08:49.795Z,20.83
2023-05-10T12:11:17.716Z,20.58
2023-05-10T12:13:46.114Z,20.59
2023-05-10T12:16:18.692Z,20.38
2023-05-10T12:18:49.786Z,20.49
2023-05-10T12:21:17.964Z,20.67
2023-05-10T12:23:53.861Z,20.61
2023-05-10T12:26:25.629Z,20.48
2023-05-10T12:29:12.942Z,20.37
2023-05-10T12:31:54.163Z,20.09
2023-05-10T12:34:26.528Z,20.21
2023-05-10T12:36:54.867Z,20.42
2023-05-10T12:39:24.653Z,20.63
2023-05-10T12:41:53.837Z,20.92
2023-05-10T12:44:21.741Z,21.11
2023-05-10T12:46:49.713Z,21.06
2023-05-10T12:49:17.350Z,21.71
2023-05-10T12:51:45.112Z,22.70
2023-05-10T12:54:13.035Z,22.87
2023-05-10T12:56:40.612Z,22.87
2023-05-10T12:59:08.166Z,22.41
2023-05-10T13:01:36.259Z,21.82
2023-05-10T13:04:04.064Z,22.30
2023-05-10T13:06:31.810Z,22.00
2023-05-10T13:08:59.792Z,21.85
2023-05-10T13:11:27.417Z,21.76
2023-05-10T13:13:55.120Z,21.85
2023-05-10T13:16:23.094Z,22.01
2023-05-10T13:18:50.687Z,22.50
2023-05-10T13:21:18.652Z,22.13
2023-05-10T13:23:46.858Z,20.76
2023-05-10T13:26:14.625Z,20.87
2023-05-10T13:28:42.299Z,21.53
2023-05-10T13:31:10.383Z,20.97
2023-05-10T13:33:38.303Z,21.28
2023-05-10T13:36:06.980Z,21.19
2023-05-10T13:38:35.066Z,20.67
2023-05-10T13:41:02.642Z,21.05
2023-05-10T13:43:30.465Z,20.93
2023-05-10T13:45:58.505Z,22.22
2023-05-10T13:48:26.112Z,22.94
2023-05-10T13:50:54.070Z,23.28
2023-05-10T13:53:21.968Z,23.15
2023-05-10T13:55:49.724Z,23.06
2023-05-10T13:58:17.312Z,23.05
2023-05-10T14:00:45.452Z,22.46
2023-05-10T14:03:13.495Z,22.62
2023-05-10T14:05:41.105Z,22.83
2023-05-10T14:08:08.773Z,22.47
2023-05-10T14:10:36.899Z,22.23
2023-05-10T14:13:04.521Z,21.93
2023-05-10T14:15:32.146Z,21.84
2023-05-10T14:18:00.198Z,21.97
2023-05-10T14:20:28.023Z,21.67
2023-05-10T14:22:55.740Z,21.58
2023-05-10T14:25:24.201Z,20.95
2023-05-10T14:27:52.077Z,20.68
2023-05-10T14:30:19.697Z,20.90
2023-05-10T14:32:47.832Z,20.61
2023-05-10T14:35:18.392Z,20.77
2023-05-10T14:37:49.524Z,20.56
2023-05-10T14:40:17.397Z,20.27
2023-05-10T14:42:45.036Z,20.44
2023-05-10T14:45:13.032Z,20.44
2023-05-10T14:47:40.795Z,20.58
2023-05-10T14:50:14.737Z,20.32
2023-05-10T14:52:49.714Z,20.44
2023-05-10T14:55:17.617Z,20.25
2023-05-10T14:57:45.401Z,20.37
2023-05-10T15:00:13.934Z,20.24
2023-05-10T15:02:42.307Z,20.39
2023-05-10T15:05:10.619Z,20.88
2023-05-10T15:07:39.046Z,20.74
2023-05-10T15:10:07.545Z,21.52
2023-05-10T15:12:35.269Z,21.79
2023-05-10T15:15:03.548Z,22.41
2023-05-10T15:17:31.177Z,21.91
2023-05-10T15:19:59.050Z,21.99
2023-05-10T15:22:27.121Z,21.11
2023-05-10T15:24:55.518Z,21.22
2023-05-10T15:27:23.180Z,21.04
2023-05-10T15:29:51.046Z,21.41
2023-05-10T15:32:18.663Z,21.72
2023-05-10T15:34:46.378Z,21.44
2023-05-10T15:37:14.301Z,21.01
2023-05-10T15:39:41.924Z,20.97
2023-05-10T15:42:09.606Z,20.66
2023-05-10T15:44:37.530Z,20.67
2023-05-10T15:47:05.730Z,20.45
2023-05-10T15:49:33.288Z,21.00
2023-05-10T15:52:01.126Z,20.96
2023-05-10T15:54:28.947Z,21.00
2023-05-10T15:56:56.530Z,20.50
2023-05-10T15:59:24.437Z,20.52
2023-05-10T16:01:52.070Z,20.90
2023-05-10T16:04:20.095Z,20.58
2023-05-10T16:06:47.848Z,20.40
2023-05-10T16:09:15.594Z,20.57
2023-05-10T16:11:43.899Z,20.59
2023-05-10T16:14:11.674Z,20.37
2023-05-10T16:16:39.469Z,20.10
2023-05-10T16:19:07.394Z,19.91
2023-05-10T16:21:35.258Z,19.78
2023-05-10T16:24:03.196Z,19.66
2023-05-10T16:26:31.157Z,19.78
2023-05-10T16:28:58.753Z,19.49
2023-05-10T16:31:26.392Z,19.68
2023-05-10T16:33:56.715Z,19.46
2023-05-10T16:36:24.281Z,19.31
2023-05-10T16:38:51.883Z,19.35
2023-05-10T16:41:19.769Z,19.50
2023-05-10T16:43:47.534Z,19.42
2023-05-10T16:46:15.341Z,19.07
2023-05-10T16:48:43.450Z,18.86
2023-05-10T16:51:11.121Z,18.88
2023-05-10T16:53:38.808Z,19.13
2023-05-10T16:56:06.983Z,19.02
2023-05-10T16:58:34.645Z,18.90
2023-05-10T17:01:02.285Z,18.86
2023-05-10T17:03:30.279Z,18.97
2023-05-10T17:05:58.087Z,18.69
2023-05-10T17:08:25.821Z,18.92
2023-05-10T17:10:53.751Z,18.79
2023-05-10T17:13:21.381Z,18.84
2023-05-10T17:15:49.323Z,18.57
2023-05-10T17:18:17.468Z,18.49
2023-05-10T17:20:45.091Z,18.53
2023-05-10T17:23:12.760Z,18.30
2023-05-10T17:25:40.732Z,18.50
2023-05-10T17:28:08.431Z,18.38
2023-05-10T17:30:36.105Z,18.15
2023-05-10T17:33:05.015Z,18.03
2023-05-10T17:35:32.746Z,18.01
2023-05-10T17:38:00.459Z,17.85
2023-05-10T17:40:28.464Z,17.90
2023-05-10T17:42:56.124Z,17.79
2023-05-10T17:45:23.797Z,17.81
2023-05-10T17:47:51.745Z,17.71
2023-05-10T17:50:19.585Z,17.74
2023-05-10T17:52:47.409Z,17.74
2023-05-10T17:55:15.677Z,17.25
2023-05-10T17:57:43.727Z,17.48
2023-05-10T18:00:12.096Z,17.30
2023-05-10T18:02:39.639Z,17.29
2023-05-10T18:05:07.942Z,17.13
2023-05-10T18:07:35.869Z,16.97
2023-05-10T18:10:03.580Z,16.95
2023-05-10T18:12:31.522Z,17.07
2023-05-10T18:14:59.140Z,16.85
2023-05-10T18:17:26.811Z,16.82
2023-05-10T18:19:54.879Z,16.82
2023-05-10T18:22:22.437Z,16.60
2023-05-10T18:24:49.994Z,16.79
2023-05-10T18:27:17.973Z,16.66
2023-05-10T18:29:45.953Z,16.47
2023-05-10T18:32:13.765Z,16.44
2023-05-10T18:34:41.725Z,16.46
2023-05-10T18:37:09.459Z,16.37
2023-05-10T18:39:37.759Z,16.19
2023-05-10T18:42:06.015Z,16.27
2023-05-10T18:44:33.694Z,16.12
2023-05-10T18:47:01.527Z,16.22
2023-05-10T18:49:29.531Z,16.14
2023-05-10T18:51:57.310Z,16.04
2023-05-10T18:54:25.164Z,16.01
2023-05-10T18:56:53.156Z,15.79
2023-05-10T19:07:56.837Z,15.82
2023-05-10T19:13:14.674Z,15.75
2023-05-10T19:15:43.049Z,15.98
2023-05-10T19:18:11.210Z,15.78
2023-05-10T19:20:40.865Z,15.75
2023-05-10T19:23:10.597Z,15.64
2023-05-10T19:25:38.457Z,15.44
2023-05-10T19:28:06.021Z,15.55
2023-05-10T19:30:34.315Z,15.48
2023-05-10T19:33:03.470Z,15.49
2023-05-10T19:35:31.215Z,15.56
2023-05-10T19:37:59.699Z,15.40
2023-05-10T19:40:27.364Z,15.41
2023-05-10T19:42:55.494Z,15.41
2023-05-10T19:45:23.482Z,15.37
2023-05-10T19:47:51.108Z,15.28
2023-05-10T19:50:19.355Z,15.46
2023-05-10T19:52:49.896Z,15.17
2023-05-10T19:55:28.345Z,15.41
2023-05-10T19:57:59.152Z,15.29
2023-05-10T20:00:27.226Z,15.12
2023-05-10T20:02:55.419Z,15.18
2023-05-10T20:05:23.423Z,14.97
2023-05-10T20:07:51.148Z,15.01
2023-05-10T20:10:19.276Z,15.12
2023-05-10T20:12:48.835Z,15.08
2023-05-10T20:15:17.507Z,15.11
2023-05-10T20:17:46.948Z,14.96
2023-05-10T20:20:15.126Z,14.88
2023-05-10T20:22:43.626Z,15.09
2023-05-10T20:25:11.851Z,14.82
2023-05-10T20:27:43.298Z,14.94
2023-05-10T20:30:11.833Z,14.81
2023-05-10T20:32:39.853Z,14.88
2023-05-10T20:35:07.904Z,14.81
2023-05-10T20:37:35.790Z,14.76
2023-05-10T20:40:07.033Z,14.59
2023-05-10T20:42:35.192Z,14.53
2023-05-10T20:45:03.438Z,14.54
2023-05-10T20:47:31.136Z,14.66
2023-05-10T20:49:58.774Z,14.61
2023-05-10T20:52:26.775Z,14.48
2023-05-10T20:54:54.730Z,14.41
2023-05-10T20:57:22.440Z,14.60
2023-05-10T20:59:50.496Z,14.45
2023-05-10T21:02:18.086Z,14.45
2023-05-10T21:04:45.734Z,14.48
2023-05-10T21:07:13.653Z,14.40
2023-05-10T21:09:41.317Z,14.34
2023-05-10T21:12:09.551Z,14.28
2023-05-10T21:14:37.405Z,14.24
2023-05-10T21:17:05.042Z,14.26
2023-05-10T21:19:32.848Z,14.21
2023-05-10T21:22:00.810Z,14.31
2023-05-10T21:24:28.433Z,14.29
2023-05-10T21:26:56.167Z,14.05
2023-05-10T21:29:24.005Z,14.01
2023-05-10T21:31:51.628Z,13.88
2023-05-10T21:34:19.259Z,14.02
2023-05-10T21:36:47.288Z,13.83
2023-05-10T21:39:15.120Z,13.86
2023-05-10T21:41:42.768Z,13.82
2023-05-10T21:44:11.102Z,13.79
2023-05-10T21:46:38.663Z,13.68
2023-05-10T21:49:06.280Z,13.69
2023-05-10T21:51:35.220Z,13.73
2023-05-10T21:54:02.904Z,13.65
2023-05-10T21:56:30.557Z,13.54
2023-05-10T21:58:58.553Z,13.56
2023-05-10T22:01:26.719Z,13.30
2023-05-10T22:03:54.853Z,13.50
2023-05-10T22:06:22.488Z,13.39
2023-05-10T22:08:50.158Z,13.42
2023-05-10T22:11:18.116Z,13.41
2023-05-10T22:13:45.787Z,13.36
2023-05-10T22:16:13.712Z,13.67
2023-05-10T22:18:42.973Z,13.71
2023-05-10T22:21:10.679Z,13.56
2023-05-10T22:23:38.322Z,13.37
2023-05-10T22:26:06.313Z,13.49
2023-05-10T22:28:33.965Z,13.35
2023-05-10T22:31:01.552Z,13.49
2023-05-10T22:33:29.532Z,13.42
2023-05-10T22:35:57.230Z,13.58
2023-05-10T22:38:25.202Z,13.61
2023-05-10T22:40:53.087Z,13.73
2023-05-10T22:43:20.740Z,13.89
2023-05-10T22:45:48.548Z,13.63
2023-05-10T22:48:16.484Z,13.56
2023-05-10T22:50:44.147Z,13.76
2023-05-10T22:53:11.865Z,13.81
2023-05-10T22:55:39.873Z,13.92
2023-05-10T22:58:07.638Z,13.80
2023-05-10T23:00:35.285Z,13.81
2023-05-10T23:03:03.248Z,13.70
2023-05-10T23:05:31.002Z,13.56
2023-05-10T23:07:58.572Z,13.58
2023-05-10T23:10:26.542Z,13.70
2023-05-10T23:12:54.098Z,13.92
2023-05-10T23:15:21.771Z,13.87
2023-05-10T23:17:49.843Z,13.86
2023-05-10T23:20:17.743Z,13.94
2023-05-10T23:22:45.617Z,14.00
2023-05-10T23:25:13.621Z,13.91
2023-05-10T23:27:41.223Z,13.82
2023-05-10T23:30:09.360Z,13.85
2023-05-10T23:32:37.454Z,13.82
2023-05-10T23:35:05.616Z,13.71
2023-05-10T23:37:33.614Z,13.55
2023-05-10T23:40:01.663Z,13.69
2023-05-10T23:42:29.535Z,13.65
2023-05-10T23:44:57.270Z,13.65
2023-05-10T23:47:25.246Z,13.61
2023-05-10T23:49:52.929Z,13.72
2023-05-10T23:52:20.565Z,13.58
2023-05-10T23:54:48.604Z,13.65
2023-05-10T23:57:16.258Z,13.72
2023-05-10T23:59:43.878Z,13.57
